createdAt,value
2019-05-26T00:03:35.167Z,10.30
2019-05-26T00:07:59.415Z,11.30
2019-05-26T00:12:23.898Z,11.63
2019-05-26T00:16:48.195Z,11.30
2019-05-26T00:21:12.483Z,11.40
2019-05-26T00:25:37.574Z,12.50
2019-05-26T00:30:01.603Z,12.20
2019-05-26T00:34:25.628Z,11.47
2019-05-26T00:38:49.966Z,11.57
2019-05-26T00:43:14.047Z,11.93
2019-05-26T00:47:39.116Z,11.67
2019-05-26T00:52:04.174Z,12.90
2019-05-26T00:56:29.369Z,12.30
2019-05-26T01:00:54.374Z,12.43
2019-05-26T01:05:19.695Z,11.90
2019-05-26T01:09:44.834Z,13.00
2019-05-26T01:14:03.674Z,13.00
2019-05-26T01:18:12.997Z,14.07
2019-05-26T01:22:23.736Z,13.90
2019-05-26T01:26:33.564Z,14.33
2019-05-26T01:30:43.693Z,16.77
2019-05-26T01:34:53.873Z,15.23
2019-05-26T01:39:05.303Z,16.77
2019-05-26T01:43:13.792Z,16.40
2019-05-26T01:47:21.221Z,16.53
2019-05-26T01:51:35.315Z,14.13
2019-05-26T01:55:46.038Z,15.13
2019-05-26T01:59:54.050Z,14.67
2019-05-26T02:04:03.397Z,14.10
2019-05-26T02:08:13.546Z,13.40
2019-05-26T02:12:22.531Z,13.80
2019-05-26T02:16:33.424Z,14.00
2019-05-26T02:20:43.726Z,15.90
2019-05-26T02:24:53.366Z,14.43
2019-05-26T02:29:17.764Z,14.03
2019-05-26T02:33:43.003Z,13.07
2019-05-26T02:38:08.294Z,13.00
2019-05-26T02:42:33.168Z,12.17
2019-05-26T02:46:57.679Z,12.40
2019-05-26T02:51:23.000Z,13.00
2019-05-26T02:55:47.946Z,13.30
2019-05-26T03:00:14.514Z,12.13
2019-05-26T03:04:40.886Z,12.53
2019-05-26T03:08:50.594Z,12.83
2019-05-26T03:13:13.883Z,12.43
2019-05-26T03:17:37.337Z,11.83
2019-05-26T03:22:03.396Z,11.90
2019-05-26T03:26:29.587Z,12.17
2019-05-26T03:30:44.084Z,13.30
2019-05-26T03:34:52.017Z,12.53
2019-05-26T03:39:05.009Z,11.57
2019-05-26T03:43:13.139Z,12.23
2019-05-26T03:47:19.965Z,11.53
2019-05-26T03:51:32.221Z,10.50
2019-05-26T03:55:57.154Z,12.80
2019-05-26T04:00:06.687Z,13.43
2019-05-26T04:04:14.003Z,14.03
2019-05-26T04:08:21.665Z,12.97
2019-05-26T04:12:28.394Z,12.33
2019-05-26T04:16:36.147Z,10.80
2019-05-26T04:20:45.977Z,9.57
2019-05-26T04:24:53.369Z,8.87
2019-05-26T04:29:02.068Z,7.70
2019-05-26T04:33:10.157Z,7.77
2019-05-26T04:37:23.032Z,7.07
2019-05-26T04:41:33.302Z,7.07
2019-05-26T04:45:43.546Z,7.37
2019-05-26T04:49:56.287Z,6.87
2019-05-26T04:54:05.671Z,6.80
2019-05-26T04:58:13.339Z,6.80
2019-05-26T05:02:20.366Z,5.60
2019-05-26T05:06:44.602Z,5.70
2019-05-26T05:11:09.991Z,5.80
2019-05-26T05:15:35.113Z,6.30
2019-05-26T05:20:00.157Z,5.30
2019-05-26T05:24:25.420Z,5.80
2019-05-26T05:28:50.255Z,5.37
2019-05-26T05:33:06.178Z,5.10
2019-05-26T05:37:14.425Z,5.50
2019-05-26T05:41:38.852Z,4.60
2019-05-26T05:45:46.685Z,5.73
2019-05-26T05:49:53.091Z,6.90
2019-05-26T05:54:01.107Z,7.20
2019-05-26T05:58:13.122Z,7.50
2019-05-26T06:02:22.110Z,7.00
2019-05-26T06:06:32.930Z,7.60
2019-05-26T06:10:39.462Z,8.50
2019-05-26T06:14:47.368Z,10.00
2019-05-26T06:19:03.189Z,9.23
2019-05-26T06:23:13.074Z,9.60
2019-05-26T06:27:20.659Z,10.00
2019-05-26T06:31:33.506Z,10.20
2019-05-26T06:35:43.046Z,10.13
2019-05-26T06:39:53.207Z,9.27
2019-05-26T06:44:05.326Z,8.77
2019-05-26T06:48:13.440Z,8.30
2019-05-26T06:52:19.969Z,8.17
2019-05-26T06:56:32.878Z,7.57
2019-05-26T07:00:43.216Z,7.10
2019-05-26T07:04:50.602Z,7.10
2019-05-26T07:09:15.535Z,6.70
2019-05-26T07:13:26.746Z,5.20
2019-05-26T07:17:51.976Z,6.67
2019-05-26T07:22:17.214Z,4.90
2019-05-26T07:26:34.177Z,4.67
2019-05-26T07:30:41.808Z,4.83
2019-05-26T07:35:10.069Z,4.63
2019-05-26T07:39:18.285Z,4.37
2019-05-26T07:43:35.069Z,4.93
2019-05-26T07:47:46.721Z,4.20
2019-05-26T07:51:53.190Z,4.60
2019-05-26T07:56:01.253Z,5.67
2019-05-26T08:00:09.908Z,3.87
2019-05-26T08:04:21.623Z,4.10
2019-05-26T08:08:38.983Z,4.30
2019-05-26T08:12:46.835Z,4.00
2019-05-26T08:16:59.383Z,3.87
2019-05-26T08:21:07.556Z,3.43
2019-05-26T08:25:20.949Z,2.87
2019-05-26T08:29:45.035Z,3.07
2019-05-26T08:33:52.098Z,3.30
2019-05-26T08:38:05.512Z,2.73
2019-05-26T08:42:26.805Z,3.00
2019-05-26T08:46:33.149Z,2.97
2019-05-26T08:50:55.089Z,2.77
2019-05-26T08:55:07.355Z,2.87
2019-05-26T08:59:23.365Z,2.63
2019-05-26T09:03:49.581Z,2.63
2019-05-26T09:07:57.475Z,2.60
2019-05-26T09:12:06.073Z,3.33
2019-05-26T09:16:31.092Z,2.50
2019-05-26T09:20:59.874Z,2.97
2019-05-26T09:25:09.817Z,2.30
2019-05-26T09:29:35.671Z,2.93
2019-05-26T09:33:49.313Z,2.17
2019-05-26T09:38:05.137Z,2.40
2019-05-26T09:42:16.635Z,2.00
2019-05-26T09:46:24.554Z,3.73
2019-05-26T09:50:33.914Z,2.00
2019-05-26T09:54:58.898Z,1.93
2019-05-26T09:59:24.158Z,1.93
2019-05-26T10:03:30.490Z,2.20
2019-05-26T10:07:38.205Z,2.20
2019-05-26T10:11:48.911Z,1.73
2019-05-26T10:15:56.183Z,1.70
2019-05-26T10:20:15.280Z,1.70
2019-05-26T10:24:24.710Z,1.90
2019-05-26T10:28:39.691Z,2.23
2019-05-26T10:32:48.868Z,2.07
2019-05-26T10:36:57.318Z,2.23
2019-05-26T10:41:05.164Z,2.77
2019-05-26T10:45:13.012Z,1.83
2019-05-26T10:49:21.165Z,2.40
2019-05-26T10:53:35.473Z,1.97
2019-05-26T10:57:43.508Z,2.27
2019-05-26T11:02:02.484Z,2.30
2019-05-26T11:06:10.650Z,2.40
2019-05-26T11:10:19.484Z,2.20
2019-05-26T11:14:27.635Z,2.30
2019-05-26T11:18:44.901Z,2.60
2019-05-26T11:23:09.621Z,2.33
2019-05-26T11:27:33.802Z,2.20
2019-05-26T11:31:43.182Z,2.13
2019-05-26T11:35:51.118Z,2.60
2019-05-26T11:40:16.831Z,2.03
2019-05-26T11:44:24.883Z,1.80
2019-05-26T11:48:39.386Z,2.57
2019-05-26T11:53:04.541Z,2.40
2019-05-26T11:57:13.842Z,2.23
2019-05-26T12:01:22.994Z,2.47
2019-05-26T12:05:29.518Z,2.30
2019-05-26T12:09:55.821Z,2.70
2019-05-26T12:14:03.009Z,1.87
2019-05-26T12:18:10.973Z,1.83
2019-05-26T12:22:17.988Z,1.87
2019-05-26T12:26:26.665Z,2.27
2019-05-26T12:30:51.510Z,1.80
2019-05-26T12:35:07.764Z,1.80
2019-05-26T12:39:15.842Z,2.20
2019-05-26T12:43:23.761Z,1.77
2019-05-26T12:47:48.607Z,1.77
2019-05-26T12:52:05.483Z,4.90
2019-05-26T12:56:12.524Z,1.70
2019-05-26T13:00:20.661Z,2.00
2019-05-26T13:04:30.327Z,1.90
2019-05-26T13:08:36.847Z,1.73
2019-05-26T13:13:01.746Z,1.90
2019-05-26T13:17:08.161Z,1.73
2019-05-26T13:21:33.030Z,1.60
2019-05-26T13:25:42.418Z,2.00
2019-05-26T13:29:54.219Z,1.70
2019-05-26T13:34:03.573Z,5.13
2019-05-26T13:38:12.898Z,1.70
2019-05-26T13:42:20.862Z,2.23
2019-05-26T13:46:34.141Z,1.60
2019-05-26T13:50:43.001Z,2.20
2019-05-26T13:55:09.051Z,1.70
2019-05-26T13:59:18.823Z,2.00
2019-05-26T14:03:44.038Z,1.40
2019-05-26T14:07:58.462Z,1.70
2019-05-26T14:12:05.491Z,1.67
2019-05-26T14:16:31.282Z,2.50
2019-05-26T14:20:42.666Z,1.70
2019-05-26T14:24:54.084Z,2.13
2019-05-26T14:29:15.406Z,2.00
2019-05-26T14:33:22.434Z,1.97
2019-05-26T14:37:40.291Z,1.60
2019-05-26T14:42:05.446Z,1.63
2019-05-26T14:46:30.649Z,1.70
2019-05-26T14:50:42.699Z,1.77
2019-05-26T14:55:07.278Z,1.63
2019-05-26T14:59:32.397Z,1.70
2019-05-26T15:03:57.277Z,1.87
2019-05-26T15:08:05.538Z,1.87
2019-05-26T15:12:13.640Z,1.83
2019-05-26T15:16:38.286Z,1.90
2019-05-26T15:20:44.658Z,2.17
2019-05-26T15:24:52.611Z,2.60
2019-05-26T15:29:05.261Z,2.27
2019-05-26T15:33:13.082Z,1.90
2019-05-26T15:37:37.942Z,2.10
2019-05-26T15:42:03.215Z,2.20
2019-05-26T15:46:28.073Z,1.70
2019-05-26T15:50:36.575Z,2.10
2019-05-26T15:55:01.823Z,1.83
2019-05-26T15:59:26.438Z,2.07
2019-05-26T16:03:50.293Z,1.87
2019-05-26T16:07:58.882Z,2.17
2019-05-26T16:12:05.474Z,4.13
2019-05-26T16:16:13.399Z,9.23
2019-05-26T16:20:21.559Z,2.33
2019-05-26T16:24:46.177Z,2.30
2019-05-26T16:28:54.091Z,1.97
2019-05-26T16:33:06.154Z,1.80
2019-05-26T16:37:14.116Z,1.90
2019-05-26T16:41:22.022Z,1.70
2019-05-26T16:45:55.633Z,1.90
2019-05-26T16:49:56.615Z,1.90
2019-05-26T16:54:21.585Z,1.93
2019-05-26T16:58:28.675Z,1.63
2019-05-26T17:02:37.728Z,1.80
2019-05-26T17:06:47.841Z,1.90
2019-05-26T17:10:55.211Z,2.20
2019-05-26T17:15:21.138Z,1.90
2019-05-26T17:19:46.244Z,2.17
2019-05-26T17:24:10.981Z,2.00
2019-05-26T17:28:18.904Z,2.23
2019-05-26T17:32:27.242Z,1.90
2019-05-26T17:36:34.199Z,1.83
2019-05-26T17:40:42.140Z,2.10
2019-05-26T17:45:08.362Z,1.90
2019-05-26T17:49:16.851Z,2.17
2019-05-26T17:53:27.670Z,2.07
2019-05-26T17:57:37.141Z,2.17
2019-05-26T18:01:46.251Z,2.40
2019-05-26T18:05:52.834Z,2.47
2019-05-26T18:10:00.220Z,2.53
2019-05-26T18:14:09.188Z,2.20
2019-05-26T18:18:15.875Z,2.33
2019-05-26T18:22:22.706Z,2.13
2019-05-26T18:27:01.385Z,2.83
2019-05-26T18:31:08.154Z,2.20
2019-05-26T18:35:32.545Z,2.30
2019-05-26T18:39:39.165Z,2.13
2019-05-26T18:43:45.643Z,2.10
2019-05-26T18:48:02.446Z,2.73
2019-05-26T18:52:01.165Z,2.60
2019-05-26T18:56:08.878Z,2.73
2019-05-26T19:00:21.852Z,2.60
2019-05-26T19:04:46.786Z,2.73
2019-05-26T19:08:57.418Z,3.10
2019-05-26T19:13:15.476Z,2.73
2019-05-26T19:17:40.343Z,3.30
2019-05-26T19:22:05.988Z,2.90
2019-05-26T19:26:31.602Z,3.00
2019-05-26T19:30:45.854Z,3.40
2019-05-26T19:34:54.449Z,2.90
2019-05-26T19:39:08.187Z,3.33
2019-05-26T19:43:33.285Z,2.83
2019-05-26T19:47:40.114Z,3.70
2019-05-26T19:51:46.946Z,3.60
2019-05-26T19:56:04.946Z,3.40
2019-05-26T20:00:14.239Z,3.63
2019-05-26T20:04:39.230Z,3.50
2019-05-26T20:09:06.534Z,2.97
2019-05-26T20:13:23.624Z,3.50
2019-05-26T20:17:48.542Z,2.80
2019-05-26T20:21:58.930Z,3.30
2019-05-26T20:26:08.518Z,3.20
2019-05-26T20:30:20.990Z,3.00
2019-05-26T20:34:25.175Z,3.00
2019-05-26T20:38:38.930Z,3.00
2019-05-26T20:43:04.263Z,2.93
2019-05-26T20:47:12.598Z,3.73
2019-05-26T20:51:37.465Z,3.73
2019-05-26T20:56:01.646Z,3.53
2019-05-26T21:00:18.362Z,3.23
2019-05-26T21:04:26.262Z,2.87
2019-05-26T21:08:51.087Z,3.47
2019-05-26T21:12:59.005Z,3.87
2019-05-26T21:17:18.893Z,3.50
2019-05-26T21:21:34.061Z,3.60
2019-05-26T21:25:59.162Z,3.60
2019-05-26T21:30:19.186Z,4.43
2019-05-26T21:34:28.483Z,3.77
2019-05-26T21:38:36.081Z,3.60
2019-05-26T21:42:48.120Z,3.53
2019-05-26T21:47:01.602Z,4.37
2019-05-26T21:51:08.838Z,3.97
2019-05-26T21:55:15.374Z,3.50
2019-05-26T21:59:24.477Z,3.70
2019-05-26T22:03:49.445Z,4.00
2019-05-26T22:07:59.052Z,4.07
2019-05-26T22:12:05.457Z,4.50
2019-05-26T22:16:17.854Z,4.00
2019-05-26T22:20:25.070Z,3.93
2019-05-26T22:24:50.269Z,4.53
2019-05-26T22:29:02.091Z,4.43
2019-05-26T22:33:11.725Z,4.60
2019-05-26T22:37:18.741Z,3.70
2019-05-26T22:41:31.640Z,3.83
2019-05-26T22:45:41.766Z,4.17
2019-05-26T22:49:52.026Z,4.30
2019-05-26T22:54:01.814Z,4.20
2019-05-26T22:58:09.845Z,3.80
2019-05-26T23:02:18.667Z,4.03
2019-05-26T23:06:27.606Z,4.10
2019-05-26T23:10:36.458Z,4.60
2019-05-26T23:14:52.200Z,4.70
2019-05-26T23:19:16.440Z,4.37
2019-05-26T23:23:10.965Z,4.77
2019-05-26T23:27:17.793Z,4.30
2019-05-26T23:31:42.135Z,5.10
2019-05-26T23:35:54.199Z,5.40
2019-05-26T23:40:00.852Z,5.37
2019-05-26T23:44:26.099Z,5.53
2019-05-26T23:48:50.135Z,5.87
2019-05-26T23:52:56.865Z,5.57
2019-05-26T23:57:03.987Z,5.27
